createdAt,value
2019-02-09T00:00:31.503Z,98861.00
2019-02-09T00:03:09.210Z,98846.00
2019-02-09T00:05:45.874Z,98848.00
2019-02-09T00:08:22.664Z,98852.00
2019-02-09T00:10:59.439Z,98857.00
2019-02-09T00:13:36.282Z,98844.00
2019-02-09T00:16:13.091Z,98828.00
2019-02-09T00:18:49.870Z,98831.00
2019-02-09T00:21:26.852Z,98827.00
2019-02-09T00:24:03.522Z,98835.00
2019-02-09T00:26:40.297Z,98815.00
2019-02-09T00:29:17.182Z,98826.00
2019-02-09T00:31:54.148Z,98834.00
2019-02-09T00:34:30.929Z,98809.00
2019-02-09T00:37:07.705Z,98811.00
2019-02-09T00:39:44.477Z,98830.00
2019-02-09T00:42:21.363Z,98835.00
2019-02-09T00:44:58.131Z,98815.00
2019-02-09T00:47:36.132Z,98819.00
2019-02-09T00:50:15.671Z,98822.00
2019-02-09T00:52:52.543Z,98836.00
2019-02-09T00:55:29.736Z,98820.00
2019-02-09T00:58:06.508Z,98800.00
2019-02-09T01:00:43.281Z,98793.00
2019-02-09T01:03:20.274Z,98803.00
2019-02-09T01:05:57.049Z,98792.00
2019-02-09T01:08:34.535Z,98791.00
2019-02-09T01:11:11.318Z,98772.00
2019-02-09T01:13:49.104Z,98764.00
2019-02-09T01:19:23.045Z,98746.00
2019-02-09T01:22:37.214Z,98758.00
2019-02-09T01:25:58.001Z,98747.00
2019-02-09T01:29:06.159Z,98755.00
2019-02-09T01:32:03.233Z,98737.00
2019-02-09T01:34:40.245Z,98727.00
2019-02-09T01:37:17.318Z,98724.00
2019-02-09T01:43:18.707Z,98714.00
2019-02-09T01:45:55.407Z,98714.00
2019-02-09T01:48:32.258Z,98696.00
2019-02-09T01:51:09.030Z,98712.00
2019-02-09T01:53:45.791Z,98699.00
2019-02-09T01:56:22.573Z,98695.00
2019-02-09T01:58:59.344Z,98696.00
2019-02-09T02:01:36.230Z,98675.00
2019-02-09T02:04:13.012Z,98660.00
2019-02-09T02:06:49.980Z,98679.00
2019-02-09T02:09:26.763Z,98666.00
2019-02-09T02:12:04.057Z,98657.00
2019-02-09T02:14:40.825Z,98650.00
2019-02-09T02:17:17.597Z,98659.00
2019-02-09T02:19:54.383Z,98661.00
2019-02-09T02:22:31.243Z,98677.00
2019-02-09T02:25:09.195Z,98676.00
2019-02-09T02:27:45.936Z,98670.00
2019-02-09T02:30:29.064Z,98661.00
2019-02-09T02:33:08.493Z,98667.00
2019-02-09T02:35:45.275Z,98663.00
2019-02-09T02:38:22.050Z,98656.00
2019-02-09T02:40:58.833Z,98655.00
2019-02-09T02:43:35.695Z,98667.00
2019-02-09T02:46:12.479Z,98666.00
2019-02-09T02:48:49.463Z,98659.00
2019-02-09T02:51:26.229Z,98650.00
2019-02-09T02:54:03.006Z,98661.00
2019-02-09T02:56:39.779Z,98649.00
2019-02-09T02:59:16.558Z,98664.00
2019-02-09T03:01:53.444Z,98646.00
2019-02-09T03:04:30.317Z,98655.00
2019-02-09T03:07:07.091Z,98648.00
2019-02-09T03:09:43.824Z,98632.00
2019-02-09T03:12:20.642Z,98639.00
2019-02-09T03:14:57.424Z,98645.00
2019-02-09T03:17:34.181Z,98645.00
2019-02-09T03:20:14.387Z,98643.00
2019-02-09T03:22:51.121Z,98644.00
2019-02-09T03:25:30.746Z,98641.00
2019-02-09T03:28:07.544Z,98637.00
2019-02-09T03:30:48.364Z,98626.00
2019-02-09T03:33:22.982Z,98632.00
2019-02-09T03:35:59.815Z,98623.00
2019-02-09T03:38:36.568Z,98629.00
2019-02-09T03:41:13.425Z,98619.00
2019-02-09T03:43:54.271Z,98625.00
2019-02-09T03:46:36.547Z,98611.00
2019-02-09T03:49:17.816Z,98627.00
2019-02-09T03:52:07.044Z,98611.00
2019-02-09T03:54:56.405Z,98611.00
2019-02-09T03:58:10.614Z,98618.00
2019-02-09T04:01:01.764Z,98617.00
2019-02-09T04:04:14.699Z,98621.00
2019-02-09T04:06:55.319Z,98599.00
2019-02-09T04:09:36.439Z,98598.00
2019-02-09T04:12:21.355Z,98584.00
2019-02-09T04:15:03.261Z,98570.00
2019-02-09T04:17:45.012Z,98569.00
2019-02-09T04:20:29.843Z,98551.00
2019-02-09T04:23:07.803Z,98552.00
2019-02-09T04:25:44.594Z,98559.00
2019-02-09T04:28:21.360Z,98550.00
2019-02-09T04:31:05.500Z,98568.00
2019-02-09T04:33:36.662Z,98537.00
2019-02-09T04:36:13.432Z,98550.00
2019-02-09T04:38:50.215Z,98540.00
2019-02-09T04:41:26.987Z,98548.00
2019-02-09T04:44:03.794Z,98560.00
2019-02-09T04:46:40.637Z,98549.00
2019-02-09T04:49:17.413Z,98537.00
2019-02-09T04:51:54.299Z,98530.00
2019-02-09T04:54:31.065Z,98529.00
2019-02-09T04:57:07.845Z,98530.00
2019-02-09T04:59:44.606Z,98505.00
2019-02-09T05:02:50.467Z,98521.00
2019-02-09T05:05:50.835Z,98506.00
2019-02-09T05:08:44.780Z,98534.00
2019-02-09T05:11:24.596Z,98511.00
2019-02-09T05:14:25.933Z,98519.00
2019-02-09T05:17:24.773Z,98512.00
2019-02-09T05:20:01.575Z,98515.00
2019-02-09T05:22:38.420Z,98507.00
2019-02-09T05:25:16.073Z,98523.00
2019-02-09T05:27:53.931Z,98502.00
2019-02-09T05:30:31.127Z,98517.00
2019-02-09T05:33:07.987Z,98509.00
2019-02-09T05:35:44.647Z,98509.00
2019-02-09T05:38:21.438Z,98495.00
2019-02-09T05:40:58.212Z,98501.00
2019-02-09T05:43:35.089Z,98498.00
2019-02-09T05:46:13.288Z,98496.00
2019-02-09T05:48:50.487Z,98508.00
2019-02-09T05:51:27.149Z,98487.00
2019-02-09T05:54:06.647Z,98484.00
2019-02-09T05:56:48.433Z,98498.00
2019-02-09T05:59:28.436Z,98486.00
2019-02-09T06:02:08.199Z,98505.00
2019-02-09T06:04:50.237Z,98502.00
2019-02-09T06:07:30.811Z,98492.00
2019-02-09T06:10:14.186Z,98503.00
2019-02-09T06:13:06.471Z,98508.00
2019-02-09T06:16:11.494Z,98511.00
2019-02-09T06:23:17.968Z,98535.00
2019-02-09T06:29:49.950Z,98492.00
2019-02-09T06:32:37.610Z,98495.00
2019-02-09T06:35:14.338Z,98495.00
2019-02-09T06:37:52.678Z,98504.00
2019-02-09T06:40:29.376Z,98496.00
2019-02-09T06:43:06.127Z,98488.00
2019-02-09T06:45:42.882Z,98492.00
2019-02-09T06:48:26.235Z,98505.00
2019-02-09T06:51:02.991Z,98501.00
2019-02-09T06:53:40.781Z,98501.00
2019-02-09T06:56:17.561Z,98494.00
2019-02-09T06:58:54.448Z,98476.00
2019-02-09T07:01:31.223Z,98491.00
2019-02-09T07:04:08.410Z,98493.00
2019-02-09T07:06:45.170Z,98487.00
2019-02-09T07:09:21.890Z,98474.00
2019-02-09T07:11:59.648Z,98483.00
2019-02-09T07:14:36.425Z,98504.00
2019-02-09T07:17:13.207Z,98501.00
2019-02-09T07:19:49.866Z,98505.00
2019-02-09T07:22:26.765Z,98515.00
2019-02-09T07:25:03.741Z,98526.00
2019-02-09T07:27:40.465Z,98507.00
2019-02-09T07:30:33.731Z,98519.00
2019-02-09T07:33:14.620Z,98527.00
2019-02-09T07:35:56.166Z,98511.00
2019-02-09T07:38:32.905Z,98520.00
2019-02-09T07:41:09.789Z,98508.00
2019-02-09T07:43:46.559Z,98534.00
2019-02-09T07:46:23.229Z,98539.00
2019-02-09T07:49:00.009Z,98518.00
2019-02-09T07:51:36.784Z,98521.00
2019-02-09T07:54:13.573Z,98536.00
2019-02-09T07:56:50.469Z,98541.00
2019-02-09T07:59:27.206Z,98543.00
2019-02-09T08:02:04.856Z,98542.00
2019-02-09T08:04:42.289Z,98543.00
2019-02-09T08:07:19.127Z,98548.00
2019-02-09T08:09:56.360Z,98530.00
2019-02-09T08:12:33.234Z,98523.00
2019-02-09T08:15:19.935Z,98544.00
2019-02-09T08:17:56.728Z,98534.00
2019-02-09T08:20:51.062Z,98545.00
2019-02-09T08:23:27.908Z,98560.00
2019-02-09T08:26:04.680Z,98573.00
2019-02-09T08:28:41.428Z,98568.00
2019-02-09T08:31:18.216Z,98574.00
2019-02-09T08:33:54.994Z,98578.00
2019-02-09T08:36:31.767Z,98601.00
2019-02-09T08:39:08.958Z,98592.00
2019-02-09T08:41:45.826Z,98606.00
2019-02-09T08:44:22.609Z,98601.00
2019-02-09T08:46:59.323Z,98587.00
2019-02-09T08:49:36.053Z,98556.00
2019-02-09T08:52:12.834Z,98573.00
2019-02-09T08:54:50.634Z,98583.00
2019-02-09T08:57:27.508Z,98592.00
2019-02-09T09:00:09.892Z,98585.00
2019-02-09T09:02:46.688Z,98605.00
2019-02-09T09:05:23.391Z,98610.00
2019-02-09T09:08:00.129Z,98609.00
2019-02-09T09:10:36.910Z,98594.00
2019-02-09T09:13:13.679Z,98602.00
2019-02-09T09:15:55.003Z,98602.00
2019-02-09T09:18:31.740Z,98604.00
2019-02-09T09:21:09.851Z,98610.00
2019-02-09T09:23:46.627Z,98601.00
2019-02-09T09:26:23.404Z,98599.00
2019-02-09T09:29:00.184Z,98591.00
2019-02-09T09:31:36.958Z,98577.00
2019-02-09T09:34:13.735Z,98566.00
2019-02-09T09:36:51.951Z,98569.00
2019-02-09T09:39:28.725Z,98566.00
2019-02-09T09:42:05.598Z,98584.00
2019-02-09T09:44:42.375Z,98583.00
2019-02-09T09:47:20.270Z,98589.00
2019-02-09T09:49:57.152Z,98595.00
2019-02-09T09:52:43.465Z,98584.00
2019-02-09T09:55:30.212Z,98590.00
2019-02-09T09:58:13.676Z,98578.00
2019-02-09T10:00:51.002Z,98572.00
2019-02-09T10:03:27.858Z,98561.00
2019-02-09T10:06:04.506Z,98549.00
2019-02-09T10:08:41.229Z,98541.00
2019-02-09T10:11:17.950Z,98557.00
2019-02-09T10:14:08.561Z,98565.00
2019-02-09T10:16:54.140Z,98566.00
2019-02-09T10:19:42.343Z,98574.00
2019-02-09T10:22:22.460Z,98547.00
2019-02-09T10:24:59.183Z,98578.00
2019-02-09T10:27:35.893Z,98580.00
2019-02-09T10:30:34.259Z,98555.00
2019-02-09T10:33:10.967Z,98555.00
2019-02-09T10:35:47.727Z,98554.00
2019-02-09T10:38:24.456Z,98561.00
2019-02-09T10:41:01.174Z,98577.00
2019-02-09T10:43:38.051Z,98589.00
2019-02-09T10:46:15.545Z,98608.00
2019-02-09T10:48:52.345Z,98605.00
2019-02-09T10:51:29.097Z,98598.00
2019-02-09T10:54:05.813Z,98627.00
2019-02-09T10:56:42.657Z,98596.00
2019-02-09T10:59:19.430Z,98603.00
2019-02-09T11:01:56.207Z,98602.00
2019-02-09T11:04:32.974Z,98613.00
2019-02-09T11:07:09.766Z,98615.00
2019-02-09T11:09:46.492Z,98634.00
2019-02-09T11:12:23.259Z,98628.00
2019-02-09T11:15:01.464Z,98643.00
2019-02-09T11:17:38.198Z,98635.00
2019-02-09T11:20:18.311Z,98620.00
2019-02-09T11:22:55.023Z,98634.00
2019-02-09T11:25:31.700Z,98622.00
2019-02-09T11:28:08.456Z,98618.00
2019-02-09T11:30:45.211Z,98622.00
2019-02-09T11:33:21.933Z,98604.00
2019-02-09T11:35:59.949Z,98609.00
2019-02-09T11:38:36.809Z,98595.00
2019-02-09T11:41:13.575Z,98580.00
2019-02-09T11:43:50.367Z,98594.00
2019-02-09T11:46:27.351Z,98610.00
2019-02-09T11:49:04.077Z,98622.00
2019-02-09T11:51:40.796Z,98611.00
2019-02-09T11:54:17.552Z,98608.00
2019-02-09T11:56:54.334Z,98603.00
2019-02-09T11:59:31.110Z,98621.00
2019-02-09T12:02:08.299Z,98588.00
2019-02-09T12:04:45.007Z,98592.00
2019-02-09T12:07:21.933Z,98581.00
2019-02-09T12:09:58.720Z,98597.00
2019-02-09T12:12:35.595Z,98611.00
2019-02-09T12:15:33.771Z,98626.00
2019-02-09T12:18:13.406Z,98656.00
2019-02-09T12:20:50.512Z,98647.00
2019-02-09T12:23:27.383Z,98661.00
2019-02-09T12:26:04.569Z,98641.00
2019-02-09T12:28:41.345Z,98609.00
2019-02-09T12:31:18.118Z,98604.00
2019-02-09T12:33:54.991Z,98574.00
2019-02-09T12:36:31.801Z,98588.00
2019-02-09T12:39:09.893Z,98589.00
2019-02-09T12:41:46.632Z,98565.00
2019-02-09T12:44:23.436Z,98582.00
2019-02-09T12:47:00.613Z,98585.00
2019-02-09T12:49:37.378Z,98580.00
2019-02-09T12:52:14.268Z,98593.00
2019-02-09T12:54:51.042Z,98586.00
2019-02-09T12:57:27.717Z,98589.00
2019-02-09T13:00:07.456Z,98601.00
2019-02-09T13:02:44.851Z,98602.00
2019-02-09T13:05:21.518Z,98600.00
2019-02-09T13:07:58.294Z,98619.00
2019-02-09T13:10:35.993Z,98609.00
2019-02-09T13:13:12.863Z,98610.00
2019-02-09T13:15:49.577Z,98610.00
2019-02-09T13:18:26.430Z,98606.00
2019-02-09T13:21:03.142Z,98622.00
2019-02-09T13:23:39.974Z,98633.00
2019-02-09T13:26:16.656Z,98635.00
2019-02-09T13:28:53.581Z,98629.00
2019-02-09T13:31:30.407Z,98632.00
2019-02-09T13:34:08.329Z,98614.00
2019-02-09T13:36:45.037Z,98636.00
2019-02-09T13:39:21.864Z,98629.00
2019-02-09T13:41:58.728Z,98636.00
2019-02-09T13:44:35.513Z,98625.00
2019-02-09T13:47:12.258Z,98640.00
2019-02-09T13:49:49.070Z,98637.00
2019-02-09T13:52:25.830Z,98643.00
2019-02-09T13:55:02.565Z,98636.00
2019-02-09T13:57:39.246Z,98643.00
2019-02-09T14:00:25.842Z,98641.00
2019-02-09T14:03:03.290Z,98648.00
2019-02-09T14:05:40.322Z,98648.00
2019-02-09T14:08:17.042Z,98648.00
2019-02-09T14:10:53.725Z,98646.00
2019-02-09T14:13:30.532Z,98642.00
2019-02-09T14:16:08.348Z,98645.00
2019-02-09T14:18:45.259Z,98656.00
2019-02-09T14:21:21.923Z,98649.00
2019-02-09T14:23:58.714Z,98671.00
2019-02-09T14:26:35.492Z,98671.00
2019-02-09T14:29:12.259Z,98670.00
2019-02-09T14:31:49.033Z,98681.00
2019-02-09T14:34:25.820Z,98670.00
2019-02-09T14:37:04.121Z,98669.00
2019-02-09T14:39:40.913Z,98665.00
2019-02-09T14:42:17.979Z,98673.00
2019-02-09T14:44:54.760Z,98661.00
2019-02-09T14:47:31.541Z,98646.00
2019-02-09T14:50:12.058Z,98653.00
2019-02-09T14:52:49.295Z,98647.00
2019-02-09T14:55:31.971Z,98656.00
2019-02-09T14:58:09.398Z,98675.00
2019-02-09T15:00:55.094Z,98676.00
2019-02-09T15:03:31.976Z,98687.00
2019-02-09T15:06:08.843Z,98698.00
2019-02-09T15:08:45.613Z,98700.00
2019-02-09T15:11:22.490Z,98717.00
2019-02-09T15:13:59.266Z,98697.00
2019-02-09T15:16:36.044Z,98706.00
2019-02-09T15:19:14.063Z,98695.00
2019-02-09T15:21:50.920Z,98704.00
2019-02-09T15:24:27.802Z,98688.00
2019-02-09T15:27:04.574Z,98690.00
2019-02-09T15:29:41.357Z,98689.00
2019-02-09T15:32:18.329Z,98682.00
2019-02-09T15:34:55.527Z,98683.00
2019-02-09T15:37:32.296Z,98677.00
2019-02-09T15:40:18.502Z,98684.00
2019-02-09T15:42:55.570Z,98678.00
2019-02-09T15:45:32.456Z,98673.00
2019-02-09T15:48:09.229Z,98694.00
2019-02-09T15:50:46.112Z,98669.00
2019-02-09T15:53:22.982Z,98683.00
2019-02-09T15:55:59.769Z,98686.00
2019-02-09T15:58:37.546Z,98668.00
2019-02-09T16:01:14.324Z,98683.00
2019-02-09T16:03:51.522Z,98668.00
2019-02-09T16:06:28.281Z,98672.00
2019-02-09T16:09:07.228Z,98675.00
2019-02-09T16:11:44.410Z,98676.00
2019-02-09T16:14:21.271Z,98673.00
2019-02-09T16:16:59.582Z,98689.00
2019-02-09T16:19:36.340Z,98689.00
2019-02-09T16:22:14.279Z,98688.00
2019-02-09T16:24:51.151Z,98681.00
2019-02-09T16:27:27.827Z,98704.00
2019-02-09T16:30:08.416Z,98712.00
2019-02-09T16:32:45.101Z,98711.00
2019-02-09T16:35:24.607Z,98728.00
2019-02-09T16:38:01.347Z,98732.00
2019-02-09T16:40:38.212Z,98724.00
2019-02-09T16:43:14.985Z,98714.00
2019-02-09T16:45:51.716Z,98708.00
2019-02-09T16:48:29.491Z,98713.00
2019-02-09T16:51:06.210Z,98700.00
2019-02-09T16:53:42.993Z,98704.00
2019-02-09T16:56:19.740Z,98707.00
2019-02-09T16:58:56.454Z,98686.00
2019-02-09T17:01:33.175Z,98694.00
2019-02-09T17:04:09.915Z,98709.00
2019-02-09T17:06:46.680Z,98698.00
2019-02-09T17:09:23.349Z,98701.00
2019-02-09T17:12:00.685Z,98695.00
2019-02-09T17:14:37.450Z,98698.00
2019-02-09T17:17:14.449Z,98720.00
2019-02-09T17:19:51.118Z,98703.00
2019-02-09T17:22:27.887Z,98722.00
2019-02-09T17:25:06.332Z,98715.00
2019-02-09T17:27:43.028Z,98716.00
2019-02-09T17:30:33.660Z,98709.00
2019-02-09T17:33:10.330Z,98716.00
2019-02-09T17:35:47.018Z,98716.00
2019-02-09T17:38:23.771Z,98703.00
2019-02-09T17:41:00.463Z,98711.00
2019-02-09T17:43:37.157Z,98711.00
2019-02-09T17:46:13.956Z,98700.00
2019-02-09T17:48:50.652Z,98708.00
2019-02-09T17:51:27.383Z,98708.00
2019-02-09T17:54:04.078Z,98715.00
2019-02-09T17:56:40.807Z,98715.00
2019-02-09T17:59:17.472Z,98719.00
2019-02-09T18:01:54.198Z,98733.00
2019-02-09T18:04:30.876Z,98738.00
2019-02-09T18:07:07.569Z,98730.00
2019-02-09T18:09:44.348Z,98739.00
2019-02-09T18:12:21.048Z,98733.00
2019-02-09T18:14:57.824Z,98737.00
2019-02-09T18:17:34.773Z,98748.00
2019-02-09T18:20:16.800Z,98755.00
2019-02-09T18:22:53.595Z,98759.00
2019-02-09T18:25:30.295Z,98754.00
2019-02-09T18:28:07.009Z,98763.00
2019-02-09T18:30:43.662Z,98750.00
2019-02-09T18:33:20.368Z,98757.00
2019-02-09T18:35:57.014Z,98776.00
2019-02-09T18:38:33.757Z,98763.00
2019-02-09T18:41:10.513Z,98764.00
2019-02-09T18:43:47.304Z,98757.00
2019-02-09T18:46:24.003Z,98765.00
2019-02-09T18:49:00.837Z,98756.00
2019-02-09T18:51:38.752Z,98757.00
2019-02-09T18:54:15.442Z,98755.00
2019-02-09T18:56:52.147Z,98763.00
2019-02-09T18:59:28.968Z,98753.00
2019-02-09T19:02:05.847Z,98751.00
2019-02-09T19:04:42.615Z,98740.00
2019-02-09T19:07:19.391Z,98747.00
2019-02-09T19:09:56.159Z,98745.00
2019-02-09T19:12:32.939Z,98742.00
2019-02-09T19:15:14.443Z,98747.00
2019-02-09T19:17:51.131Z,98762.00
2019-02-09T19:20:41.084Z,98772.00
2019-02-09T19:23:17.884Z,98752.00
2019-02-09T19:25:54.642Z,98761.00
2019-02-09T19:28:31.379Z,98784.00
2019-02-09T19:31:08.448Z,98773.00
2019-02-09T19:33:45.189Z,98767.00
2019-02-09T19:36:21.952Z,98762.00
2019-02-09T19:38:58.719Z,98756.00
2019-02-09T19:41:35.589Z,98744.00
2019-02-09T19:44:12.288Z,98739.00
2019-02-09T19:46:48.955Z,98732.00
2019-02-09T19:49:25.677Z,98722.00
2019-02-09T19:52:02.410Z,98723.00
2019-02-09T19:54:39.123Z,98737.00
2019-02-09T19:57:15.836Z,98727.00
2019-02-09T19:59:52.582Z,98741.00
2019-02-09T20:02:29.526Z,98749.00
2019-02-09T20:05:08.647Z,98740.00
2019-02-09T20:07:45.394Z,98750.00
2019-02-09T20:10:26.543Z,98752.00
2019-02-09T20:13:07.428Z,98739.00
2019-02-09T20:15:51.250Z,98738.00
2019-02-09T20:18:36.586Z,98752.00
2019-02-09T20:21:20.905Z,98757.00
2019-02-09T20:24:06.282Z,98768.00
2019-02-09T20:26:52.688Z,98756.00
2019-02-09T20:29:36.814Z,98753.00
2019-02-09T20:32:20.914Z,98749.00
2019-02-09T20:35:05.688Z,98736.00
2019-02-09T20:37:51.365Z,98741.00
2019-02-09T20:40:52.010Z,98748.00
2019-02-09T20:43:35.055Z,98725.00
2019-02-09T20:46:17.623Z,98726.00
2019-02-09T20:49:00.848Z,98730.00
2019-02-09T20:51:44.306Z,98734.00
2019-02-09T20:54:29.648Z,98743.00
2019-02-09T20:57:12.142Z,98721.00
2019-02-09T20:59:55.315Z,98732.00
2019-02-09T21:02:40.145Z,98744.00
2019-02-09T21:05:22.140Z,98733.00
2019-02-09T21:08:06.162Z,98739.00
2019-02-09T21:10:50.901Z,98744.00
2019-02-09T21:13:33.511Z,98740.00
2019-02-09T21:16:16.508Z,98725.00
2019-02-09T21:18:58.770Z,98734.00
2019-02-09T21:21:41.267Z,98729.00
2019-02-09T21:24:24.236Z,98742.00
2019-02-09T21:27:09.628Z,98741.00
2019-02-09T21:29:50.958Z,98726.00
2019-02-09T21:32:40.140Z,98732.00
2019-02-09T21:35:21.488Z,98738.00
2019-02-09T21:38:03.454Z,98719.00
2019-02-09T21:40:47.662Z,98740.00
2019-02-09T21:43:33.122Z,98716.00
2019-02-09T21:46:19.809Z,98726.00
2019-02-09T21:49:00.260Z,98722.00
2019-02-09T21:51:42.636Z,98743.00
2019-02-09T21:54:30.275Z,98727.00
2019-02-09T21:57:13.567Z,98729.00
2019-02-09T21:59:54.799Z,98724.00
2019-02-09T22:02:47.816Z,98731.00
2019-02-09T22:05:20.940Z,98738.00
2019-02-09T22:08:00.533Z,98732.00
2019-02-09T22:10:41.335Z,98717.00
2019-02-09T22:13:24.243Z,98735.00
2019-02-09T22:16:09.697Z,98729.00
2019-02-09T22:18:49.930Z,98743.00
2019-02-09T22:21:29.328Z,98740.00
2019-02-09T22:24:14.822Z,98738.00
2019-02-09T22:27:01.573Z,98731.00
2019-02-09T22:29:43.462Z,98737.00
2019-02-09T22:32:27.788Z,98740.00
2019-02-09T22:35:14.822Z,98722.00
2019-02-09T22:37:58.482Z,98717.00
2019-02-09T22:40:46.430Z,98746.00
2019-02-09T22:43:30.402Z,98743.00
2019-02-09T22:46:14.959Z,98735.00
2019-02-09T22:49:00.191Z,98738.00
2019-02-09T22:51:41.480Z,98740.00
2019-02-09T22:54:23.981Z,98745.00
2019-02-09T22:57:09.340Z,98736.00
2019-02-09T22:59:52.233Z,98730.00
2019-02-09T23:02:35.076Z,98742.00
2019-02-09T23:05:55.967Z,98748.00
2019-02-09T23:08:43.184Z,98742.00
2019-02-09T23:11:26.387Z,98737.00
2019-02-09T23:14:08.511Z,98741.00
2019-02-09T23:16:56.770Z,98747.00
2019-02-09T23:19:36.618Z,98747.00
2019-02-09T23:22:21.478Z,98754.00
2019-02-09T23:25:04.614Z,98749.00
2019-02-09T23:27:49.073Z,98742.00
2019-02-09T23:30:31.262Z,98750.00
2019-02-09T23:33:16.135Z,98757.00
2019-02-09T23:35:57.729Z,98757.00
2019-02-09T23:38:44.328Z,98760.00
2019-02-09T23:41:29.413Z,98768.00
2019-02-09T23:44:13.021Z,98757.00
2019-02-09T23:46:55.832Z,98771.00
2019-02-09T23:49:39.091Z,98756.00
2019-02-09T23:52:23.433Z,98756.00
2019-02-09T23:55:09.061Z,98763.00
2019-02-09T23:57:52.857Z,98769.00
